Flight Track Log - Related Links

Times and Time Zones

All times are in EDT time to prevent confusion due to time zone crossing. See the SWA2236 flight status page for this flight to view local times or setup timezone preferences in your user account.

Time Position Orientation Groundspeed Altitude Reporting Facility
EDT Latitude Longitude Course Direction KTS MPH feet Rate Location/Type
Mon 07:30:16 PM 30.5153 -81.6483 61° Northeast 133 153 2,500  Level Jacksonville Center
Mon 07:31:02 PM 30.5569 -81.6431 North 220 253 4,400 2,774 Climbing Jacksonville Center
Mon 07:32:02 PM 30.6278 -81.6444 359° North 264 304 7,400 3,400 Climbing Jacksonville Center
Mon 07:33:02 PM 30.7092 -81.6433 North 289 333 11,200 3,300 Climbing Jacksonville Center
Mon 07:34:02 PM 30.8011 -81.6447 359° North 307 353 14,000 3,050 Climbing Jacksonville Center
Mon 07:35:02 PM 30.9033 -81.6408 North 340 391 17,300 3,200 Climbing Jacksonville Center
Mon 07:36:02 PM 31.0075 -81.6178 11° North 353 406 20,400 2,950 Climbing Jacksonville Center
Mon 07:37:02 PM 31.1094 -81.5797 18° North 374 430 23,200 3,050 Climbing Jacksonville Center
Mon 07:38:02 PM 31.2136 -81.5419 17° North 384 442 26,500 3,000 Climbing Jacksonville Center
Mon 07:39:02 PM 31.3133 -81.5064 17° North 378 435 29,200 2,350 Climbing Jacksonville Center
Mon 07:40:02 PM 31.4067 -81.4467 29° Northeast 373 429 31,200 1,950 Climbing Jacksonville Center
Mon 07:41:02 PM 31.4872 -81.3822 34° Northeast 386 444 33,100 1,850 Climbing Jacksonville Center
Mon 07:42:02 PM 31.5994 -81.3292 22° Northeast 386 444 34,900 1,550 Climbing Jacksonville Center
Mon 07:43:02 PM 31.6969 -81.2811 23° Northeast 396 456 36,200 1,350 Climbing Jacksonville Center
Mon 07:44:02 PM 31.8111 -81.2203 24° Northeast 409 471 37,600 1,300 Climbing Jacksonville Center
Mon 07:45:02 PM 31.9231 -81.1619 24° Northeast 425 489 38,800 1,300 Climbing Jacksonville Center
Mon 07:46:02 PM 32.0308 -81.1061 24° Northeast 425 489 40,200 1,100 Climbing Jacksonville Center
Mon 07:47:02 PM 32.1319 -81.0231 35° Northeast 425 489 41,000 400 Climbing Jacksonville Center
Mon 07:48:02 PM 32.2206 -80.9550 33° Northeast 433 498 41,000  Level Jacksonville Center
Mon 07:49:02 PM 32.3258 -80.8717 34° Northeast 417 480 41,000  Level Jacksonville Center
Mon 07:50:02 PM 32.4183 -80.7908 36° Northeast 420 483 41,000  Level Jacksonville Center
Mon 07:51:02 PM 32.5172 -80.7097 35° Northeast 420 483 41,000  Level Jacksonville Center
Mon 07:52:02 PM 32.6139 -80.6311 34° Northeast 420 483 41,000  Level Jacksonville Center
Mon 07:53:02 PM 32.7086 -80.5522 35° Northeast 420 483 41,000  Level Jacksonville Center
Mon 07:54:02 PM 32.8031 -80.4706 36° Northeast 420 483 41,000  Level Jacksonville Center
Mon 07:55:02 PM 32.8975 -80.3939 34° Northeast 420 483 41,000  Level Jacksonville Center
Mon 07:56:02 PM 32.9900 -80.3169 35° Northeast 438 504 41,000  Level Jacksonville Center
Mon 07:57:02 PM 33.0883 -80.2347 35° Northeast 433 498 41,000  Level Jacksonville Center
Mon 07:58:02 PM 33.1847 -80.1550 35° Northeast 433 498 41,000  Level Jacksonville Center
Mon 07:59:02 PM 33.2792 -80.0750 35° Northeast 426 490 41,000  Level Jacksonville Center
Mon 08:00:02 PM 33.3733 -79.9950 35° Northeast 421 484 41,000  Level Jacksonville Center
Mon 08:01:02 PM 33.4714 -79.9122 35° Northeast 421 484 41,000  Level Jacksonville Center
Mon 08:02:02 PM 33.5656 -79.8317 35° Northeast 421 484 41,000  Level Jacksonville Center
Mon 08:03:02 PM 33.6597 -79.7511 35° Northeast 421 484 41,000  Level Jacksonville Center
Mon 08:04:02 PM 33.7556 -79.6703 35° Northeast 421 484 41,000  Level Jacksonville Center
Mon 08:05:02 PM 33.8494 -79.5867 36° Northeast 421 484 41,000  Level Jacksonville Center
Mon 08:06:02 PM 33.9433 -79.5081 35° Northeast 421 484 41,000  Level Jacksonville Center
Mon 08:08:22 PM 34.1661 -79.3164 35° Northeast 414 476 41,000  Level Washington Center
Mon 08:09:23 PM 34.2539 -79.2400 36° Northeast 423 487 41,000  Level Washington Center
Mon 08:10:23 PM 34.3461 -79.1586 36° Northeast 423 487 41,000  Level Washington Center
Mon 08:11:23 PM 34.4444 -79.0797 33° Northeast 417 480 41,000  Level Washington Center
Mon 08:12:21 PM 34.5506 -79.0189 25° Northeast 417 480 41,000  Level Washington Center
Mon 08:13:23 PM 34.6564 -78.9600 25° Northeast 412 474 41,000 -98 Level Washington Center
Mon 08:14:23 PM 34.7644 -78.9039 23° Northeast 412 474 40,800 -610 Descending Washington Center
Mon 08:15:21 PM 34.8725 -78.8425 25° Northeast 412 474 39,800 -1,017 Descending Washington Center
Mon 08:16:21 PM 34.9764 -78.7858 24° Northeast 407 468 38,800 -893 Descending Washington Center
Mon 08:17:22 PM 35.0864 -78.7242 25° Northeast 407 468 38,000 -885 Descending Washington Center
Mon 08:18:23 PM 35.1967 -78.6625 25° Northeast 413 475 37,000 -496 Descending Washington Center
Mon 08:19:23 PM 35.3044 -78.6003 25° Northeast 423 487 37,000  Level Washington Center
Mon 08:20:23 PM 35.4294 -78.5286 25° Northeast 441 507 37,000  Level Washington Center
Mon 08:21:21 PM 35.5289 -78.4708 25° Northeast 436 502 37,000 -252 Level Washington Center
Mon 08:22:22 PM 35.6578 -78.3989 24° Northeast 442 509 36,500 -738 Descending Washington Center
Mon 08:23:23 PM 35.7678 -78.3389 24° Northeast 442 509 35,500 -942 Descending Washington Center
Mon 08:24:23 PM 35.8778 -78.2758 25° Northeast 442 509 34,600 -958 Descending Washington Center
Mon 08:25:22 PM 35.9897 -78.2106 25° Northeast 442 509 33,600 -950 Descending Washington Center
Mon 08:26:23 PM 36.1039 -78.1475 24° Northeast 442 509 32,700 -942 Descending Washington Center
Mon 08:27:23 PM 36.2178 -78.0789 26° Northeast 442 509 31,700 -1,017 Descending Washington Center
Mon 08:28:21 PM 36.3339 -78.0131 25° Northeast 447 514 30,700 -908 Descending Washington Center
Mon 08:29:22 PM 36.4353 -77.9517 26° Northeast 447 514 29,900 -850 Descending Washington Center
Mon 08:30:21 PM 36.5536 -77.8828 25° Northeast 447 514 29,000 -450 Descending Washington Center
Mon 08:31:22 PM 36.6694 -77.8189 24° Northeast 447 514 29,000 -496 Level Washington Center
Mon 08:32:22 PM 36.7631 -77.7283 38° Northeast 436 502 28,000 -496 Descending Washington Center
Mon 08:33:23 PM 36.8519 -77.6425 38° Northeast 422 486 28,000  Level Washington Center
Mon 08:34:23 PM 36.9267 -77.5508 44° Northeast 389 448 28,000  Level Washington Center
Mon 08:35:23 PM 36.9825 -77.4508 55° Northeast 365 420 28,000  Level Washington Center
Mon 08:36:21 PM 37.0975 -77.4225 11° North 360 414 28,000 -250 Level Washington Center
Mon 08:37:23 PM 37.2106 -77.3964 10° North 382 440 27,500 -750 Descending Washington Center
Mon 08:38:21 PM 37.3236 -77.3678 11° North 400 460 26,500 -1,059 Descending Washington Center
Mon 08:39:22 PM 37.4367 -77.3417 10° North 405 466 25,400 -1,328 Descending Washington Center
Mon 08:40:23 PM 37.5436 -77.3128 12° North 405 466 23,800 -1,210 Descending Washington Center
Mon 08:41:21 PM 37.6461 -77.2914 North 391 450 23,000 -403 Descending Washington Center
Mon 08:42:22 PM 37.7486 -77.2700 North 375 432 23,000 -298 Level Washington Center
Mon 08:43:22 PM 37.8511 -77.2486 North 370 426 22,400 -793 Descending Washington Center
Mon 08:44:23 PM 37.9556 -77.2272 North 370 426 21,400 -1,008 Descending Washington Center
Mon 08:45:21 PM 38.0517 -77.2108 North 365 420 20,400 -1,008 Descending Washington Center
Mon 08:46:22 PM 38.1500 -77.1892 10° North 360 414 19,400 -1,240 Descending Washington Center
Mon 08:47:22 PM 38.2442 -77.1647 12° North 355 409 17,900 -1,800 Descending Washington Center
Mon 08:48:22 PM 38.3383 -77.1481 North 342 394 15,800 -1,488 Descending Washington Center
Mon 08:49:23 PM 38.4203 -77.0942 27° Northeast 331 381 14,900 -1,462 Descending Washington Center
Mon 08:50:21 PM 38.4839 -77.0158 44° Northeast 315 362 12,900 -1,412 Descending Washington Center
Mon 08:51:22 PM 38.5494 -76.9350 44° Northeast 315 362 12,100 -1,140 Descending Washington Center
Mon 08:52:22 PM 38.6128 -76.8592 43° Northeast 315 362 10,600 -1,059 Descending Washington Center
Mon 08:53:21 PM 38.6697 -76.7883 44° Northeast 296 341 10,000 -807 Descending Washington Center
Mon 08:54:21 PM 38.7183 -76.7172 49° Northeast 277 319 9,000 -1,243 Descending Washington Center
Mon 08:56:10 PM 38.7833 -76.5500 63° Northeast 260 299 6,500 -1,101 Descending Potomac TRACON
Mon 08:57:10 PM 38.8500 -76.5333 11° North 246 283 5,900 -1,000 Descending Potomac TRACON
Mon 08:58:10 PM 38.9167 -76.5333 360° North 251 289 4,500 -1,091 Descending Potomac TRACON
Mon 08:59:11 PM 38.9833 -76.5500 349° North 242 278 3,700 -843 Descending Potomac TRACON
Mon 09:00:11 PM 39.0500 -76.5667 349° North 223 257 2,800 -1,000 Descending Potomac TRACON
Mon 09:01:11 PM 39.1000 -76.6000 333° Northwest 185 213 1,700 -947 Descending Potomac TRACON
Mon 09:02:05 PM 39.1167 -76.6333 303° West 141 162 1,000 -700 Descending Potomac TRACON
Mon 09:03:11 PM 39.1500 -76.6500 339° North 133 153 300 -636 Descending Potomac TRACON
Mon 09:05:00 PM 39.1667 -76.6667 339° North  Level FlightAware
Mon 09:12:00 PM 39.1754 -76.6683 339° North  Level Estimated
Mon 09:13:00 PM 39.1754 -76.6683 339° North  Level Estimated
Mon 09:14:00 PM 39.1754 -76.6683 339° North  Level Estimated
Mon 09:15:00 PM 39.1754 -76.6683 339° North  Level Estimated

Login

Don't have an account? Register now (free) for customized features, flight alerts, and more!